Pep, New Mexico
Current Conditions -  °F | °C
As of 4:58 AM on Monday 26 Jan 2015 (Local Time) from KCVS Reporting Station
Clear Clear  
Wind Chill: 31°   Ceiling: Unl
Heat Index: 38°   Visibility: 10mi
Dew Point: 25°   Wind: 12mph
Humidity: 60%   Direction: 300°WNW
Pressure: 30.26"   Gusts: NA
Location:  33.84°N, 103.34°W
Report Text: KCVS 261158Z AUTO 30010KT 10SM CLR 03/M04 A3026 RMK AO2 SLP241 T00341038 10043 20024 55004 VISNO RWY22 $
Loading
Personal Weather Stations






























Interactive Weather Map New forecast layout! Learn more

10-Day Weather Forecast

Advertisements
Track Severe Weather on mobile